sensor_id;sensor_type;location;lat;lon;timestamp;pressure;altitude;pressure_sealevel;temperature;humidity
48874;BME280;66155;46.204;5.220;2023-07-08T00:04:44;98603.22;;;26.90;41.13
48874;BME280;66155;46.204;5.220;2023-07-08T00:09:44;98592.81;;;26.85;40.87
48874;BME280;66155;46.204;5.220;2023-07-08T00:14:44;98587.41;;;26.81;40.49
48874;BME280;66155;46.204;5.220;2023-07-08T00:19:45;98591.56;;;26.79;40.51
48874;BME280;66155;46.204;5.220;2023-07-08T00:24:47;98586.22;;;26.79;40.62
48874;BME280;66155;46.204;5.220;2023-07-08T00:29:48;98580.69;;;26.68;40.57
48874;BME280;66155;46.204;5.220;2023-07-08T00:34:48;98611.66;;;26.69;40.75
48874;BME280;66155;46.204;5.220;2023-07-08T00:39:48;98610.72;;;26.61;40.46
48874;BME280;66155;46.204;5.220;2023-07-08T00:44:49;98614.47;;;26.56;40.39
48874;BME280;66155;46.204;5.220;2023-07-08T00:49:56;98607.50;;;26.52;40.11
48874;BME280;66155;46.204;5.220;2023-07-08T00:55:03;98623.94;;;26.54;40.21
48874;BME280;66155;46.204;5.220;2023-07-08T01:00:07;98635.00;;;26.52;40.16
48874;BME280;66155;46.204;5.220;2023-07-08T01:05:12;98643.38;;;26.51;39.68
48874;BME280;66155;46.204;5.220;2023-07-08T01:10:14;98645.47;;;26.42;39.55
48874;BME280;66155;46.204;5.220;2023-07-08T01:15:17;98651.66;;;26.46;39.79
48874;BME280;66155;46.204;5.220;2023-07-08T01:20:17;98640.25;;;26.49;39.75
48874;BME280;66155;46.204;5.220;2023-07-08T01:25:18;98637.69;;;26.52;39.59
48874;BME280;66155;46.204;5.220;2023-07-08T01:30:19;98634.56;;;26.50;39.86
48874;BME280;66155;46.204;5.220;2023-07-08T01:35:20;98637.28;;;26.54;39.96
48874;BME280;66155;46.204;5.220;2023-07-08T01:45:23;98639.91;;;26.50;39.70
48874;BME280;66155;46.204;5.220;2023-07-08T01:50:25;98650.59;;;26.50;39.60
48874;BME280;66155;46.204;5.220;2023-07-08T01:55:27;98658.97;;;26.49;39.59
48874;BME280;66155;46.204;5.220;2023-07-08T02:00:30;98667.69;;;26.46;39.72
48874;BME280;66155;46.204;5.220;2023-07-08T02:05:31;98666.56;;;26.47;39.50
48874;BME280;66155;46.204;5.220;2023-07-08T02:10:31;98658.88;;;26.45;39.24
48874;BME280;66155;46.204;5.220;2023-07-08T02:15:32;98666.13;;;26.45;39.47
48874;BME280;66155;46.204;5.220;2023-07-08T02:20:33;98671.34;;;26.18;39.70
48874;BME280;66155;46.204;5.220;2023-07-08T02:25:33;98664.38;;;25.94;40.04
48874;BME280;66155;46.204;5.220;2023-07-08T02:30:33;98670.72;;;26.05;40.00
48874;BME280;66155;46.204;5.220;2023-07-08T02:35:34;98642.53;;;26.08;39.76
48874;BME280;66155;46.204;5.220;2023-07-08T02:40:34;98629.63;;;26.10;40.06
48874;BME280;66155;46.204;5.220;2023-07-08T02:45:36;98605.66;;;26.13;40.01
48874;BME280;66155;46.204;5.220;2023-07-08T02:50:36;98611.47;;;26.19;40.12
48874;BME280;66155;46.204;5.220;2023-07-08T02:55:38;98613.00;;;26.20;39.93
48874;BME280;66155;46.204;5.220;2023-07-08T03:00:38;98614.22;;;26.23;40.02
48874;BME280;66155;46.204;5.220;2023-07-08T03:05:39;98617.31;;;26.25;40.02
48874;BME280;66155;46.204;5.220;2023-07-08T03:10:40;98615.06;;;26.27;40.32
48874;BME280;66155;46.204;5.220;2023-07-08T03:15:44;98616.53;;;26.24;40.58
48874;BME280;66155;46.204;5.220;2023-07-08T03:20:47;98610.06;;;26.25;40.53
48874;BME280;66155;46.204;5.220;2023-07-08T03:25:48;98618.56;;;26.31;40.53
48874;BME280;66155;46.204;5.220;2023-07-08T03:30:52;98615.34;;;26.22;40.90
48874;BME280;66155;46.204;5.220;2023-07-08T03:35:53;98595.88;;;26.21;40.66
48874;BME280;66155;46.204;5.220;2023-07-08T03:40:54;98603.47;;;26.19;41.03
48874;BME280;66155;46.204;5.220;2023-07-08T03:45:54;98586.59;;;26.15;41.15
48874;BME280;66155;46.204;5.220;2023-07-08T03:50:54;98601.09;;;26.14;41.29
48874;BME280;66155;46.204;5.220;2023-07-08T03:55:55;98602.53;;;26.11;41.28
48874;BME280;66155;46.204;5.220;2023-07-08T04:00:55;98605.72;;;26.17;41.24
48874;BME280;66155;46.204;5.220;2023-07-08T04:05:56;98603.47;;;26.19;41.39
48874;BME280;66155;46.204;5.220;2023-07-08T04:10:56;98592.78;;;26.19;41.25
48874;BME280;66155;46.204;5.220;2023-07-08T04:15:59;98592.44;;;26.21;41.44
48874;BME280;66155;46.204;5.220;2023-07-08T04:21:01;98605.72;;;26.17;41.73
48874;BME280;66155;46.204;5.220;2023-07-08T04:26:02;98611.00;;;26.13;41.84
48874;BME280;66155;46.204;5.220;2023-07-08T04:31:02;98617.16;;;26.17;42.02
48874;BME280;66155;46.204;5.220;2023-07-08T04:36:05;98613.44;;;26.22;42.06
48874;BME280;66155;46.204;5.220;2023-07-08T04:41:09;98621.03;;;26.20;42.09
48874;BME280;66155;46.204;5.220;2023-07-08T04:46:19;98623.69;;;26.20;42.41
48874;BME280;66155;46.204;5.220;2023-07-08T04:51:21;98632.06;;;26.18;42.25
48874;BME280;66155;46.204;5.220;2023-07-08T04:56:22;98638.19;;;26.19;42.28
48874;BME280;66155;46.204;5.220;2023-07-08T05:01:23;98647.72;;;26.20;42.30
48874;BME280;66155;46.204;5.220;2023-07-08T05:06:24;98650.31;;;26.16;42.43
48874;BME280;66155;46.204;5.220;2023-07-08T05:11:24;98656.03;;;26.15;42.51
48874;BME280;66155;46.204;5.220;2023-07-08T05:16:25;98660.94;;;26.13;42.73
48874;BME280;66155;46.204;5.220;2023-07-08T05:21:25;98674.63;;;26.11;42.73
48874;BME280;66155;46.204;5.220;2023-07-08T05:26:27;98672.25;;;26.06;42.96
48874;BME280;66155;46.204;5.220;2023-07-08T05:31:28;98674.28;;;26.13;42.83
48874;BME280;66155;46.204;5.220;2023-07-08T05:36:29;98690.19;;;26.25;42.58
48874;BME280;66155;46.204;5.220;2023-07-08T05:41:29;98696.81;;;26.31;42.75
48874;BME280;66155;46.204;5.220;2023-07-08T05:46:29;98699.69;;;26.42;42.50
48874;BME280;66155;46.204;5.220;2023-07-08T05:51:30;98706.22;;;26.45;42.75
48874;BME280;66155;46.204;5.220;2023-07-08T05:56:30;98705.53;;;26.48;42.73
48874;BME280;66155;46.204;5.220;2023-07-08T06:01:31;98717.34;;;26.66;42.34
48874;BME280;66155;46.204;5.220;2023-07-08T06:06:31;98710.72;;;26.80;42.14
48874;BME280;66155;46.204;5.220;2023-07-08T06:11:32;98717.72;;;26.88;41.75
48874;BME280;66155;46.204;5.220;2023-07-08T06:16:33;98715.28;;;26.99;41.54
48874;BME280;66155;46.204;5.220;2023-07-08T06:21:34;98726.56;;;27.11;41.50
48874;BME280;66155;46.204;5.220;2023-07-08T06:26:35;98717.81;;;27.15;41.36
48874;BME280;66155;46.204;5.220;2023-07-08T06:31:36;98731.34;;;27.22;41.00
48874;BME280;66155;46.204;5.220;2023-07-08T06:36:36;98740.94;;;27.26;40.98
48874;BME280;66155;46.204;5.220;2023-07-08T06:41:37;98726.94;;;27.33;41.16
48874;BME280;66155;46.204;5.220;2023-07-08T06:46:38;98734.69;;;27.38;40.66
48874;BME280;66155;46.204;5.220;2023-07-08T06:51:38;98750.19;;;27.52;40.67
48874;BME280;66155;46.204;5.220;2023-07-08T06:56:40;98738.09;;;27.62;40.38
48874;BME280;66155;46.204;5.220;2023-07-08T07:01:41;98750.25;;;27.56;40.97
48874;BME280;66155;46.204;5.220;2023-07-08T07:06:42;98749.34;;;27.48;41.32
48874;BME280;66155;46.204;5.220;2023-07-08T07:11:42;98750.03;;;27.41;41.38
48874;BME280;66155;46.204;5.220;2023-07-08T07:16:44;98748.41;;;27.37;41.50
48874;BME280;66155;46.204;5.220;2023-07-08T07:21:44;98744.97;;;27.36;41.55
48874;BME280;66155;46.204;5.220;2023-07-08T07:26:45;98748.06;;;27.38;41.63
48874;BME280;66155;46.204;5.220;2023-07-08T07:31:46;98739.91;;;27.31;41.74
48874;BME280;66155;46.204;5.220;2023-07-08T07:36:47;98742.19;;;27.29;41.96
48874;BME280;66155;46.204;5.220;2023-07-08T07:41:47;98741.78;;;27.30;41.88
48874;BME280;66155;46.204;5.220;2023-07-08T07:46:48;98745.38;;;27.38;42.04
48874;BME280;66155;46.204;5.220;2023-07-08T07:51:48;98744.69;;;27.41;41.88
48874;BME280;66155;46.204;5.220;2023-07-08T07:56:49;98748.19;;;27.45;41.42
48874;BME280;66155;46.204;5.220;2023-07-08T08:01:49;98742.22;;;27.56;41.44
48874;BME280;66155;46.204;5.220;2023-07-08T08:06:50;98749.44;;;27.78;40.77
48874;BME280;66155;46.204;5.220;2023-07-08T08:11:51;98739.56;;;27.82;40.63
48874;BME280;66155;46.204;5.220;2023-07-08T08:16:52;98744.22;;;27.89;39.87
48874;BME280;66155;46.204;5.220;2023-07-08T08:21:52;98738.66;;;27.98;39.47
48874;BME280;66155;46.204;5.220;2023-07-08T08:26:53;98743.38;;;28.08;38.99
48874;BME280;66155;46.204;5.220;2023-07-08T08:31:53;98741.34;;;28.28;38.94
48874;BME280;66155;46.204;5.220;2023-07-08T08:36:54;98742.63;;;28.38;38.71
48874;BME280;66155;46.204;5.220;2023-07-08T08:41:56;98746.59;;;28.51;38.64
48874;BME280;66155;46.204;5.220;2023-07-08T08:47:10;98758.25;;;28.62;37.87
48874;BME280;66155;46.204;5.220;2023-07-08T08:52:14;98751.41;;;28.69;38.23
48874;BME280;66155;46.204;5.220;2023-07-08T09:03:01;98762.31;;;28.83;37.16
48874;BME280;66155;46.204;5.220;2023-07-08T09:08:34;98749.69;;;28.84;36.98
48874;BME280;66155;46.204;5.220;2023-07-08T09:13:36;98769.38;;;28.98;37.54
48874;BME280;66155;46.204;5.220;2023-07-08T09:19:28;98760.25;;;29.07;36.98
48874;BME280;66155;46.204;5.220;2023-07-08T09:24:15;98759.84;;;29.05;36.78
48874;BME280;66155;46.204;5.220;2023-07-08T09:29:17;98754.53;;;29.12;36.86
48874;BME280;66155;46.204;5.220;2023-07-08T09:34:21;98767.59;;;29.13;36.80
48874;BME280;66155;46.204;5.220;2023-07-08T09:39:25;98764.19;;;29.16;36.74
48874;BME280;66155;46.204;5.220;2023-07-08T09:44:28;98761.56;;;29.20;36.78
48874;BME280;66155;46.204;5.220;2023-07-08T09:49:35;98783.06;;;29.24;36.63
48874;BME280;66155;46.204;5.220;2023-07-08T09:54:35;98778.13;;;29.29;36.86
48874;BME280;66155;46.204;5.220;2023-07-08T09:59:43;98769.38;;;29.36;37.14
48874;BME280;66155;46.204;5.220;2023-07-08T10:04:46;98774.41;;;29.41;36.91
48874;BME280;66155;46.204;5.220;2023-07-08T10:09:48;98781.31;;;29.42;36.83
48874;BME280;66155;46.204;5.220;2023-07-08T10:14:54;98791.75;;;29.54;36.73
48874;BME280;66155;46.204;5.220;2023-07-08T10:19:56;98781.81;;;29.58;36.05
48874;BME280;66155;46.204;5.220;2023-07-08T10:25:20;98779.56;;;29.64;35.19
48874;BME280;66155;46.204;5.220;2023-07-08T10:30:26;98778.81;;;29.64;35.16
48874;BME280;66155;46.204;5.220;2023-07-08T10:35:33;98780.47;;;29.79;35.33
48874;BME280;66155;46.204;5.220;2023-07-08T10:45:56;98754.47;;;29.94;35.77
48874;BME280;66155;46.204;5.220;2023-07-08T11:07:32;98745.81;;;30.22;33.63
48874;BME280;66155;46.204;5.220;2023-07-08T11:12:44;98753.91;;;30.29;33.22
48874;BME280;66155;46.204;5.220;2023-07-08T11:17:59;98761.16;;;30.29;32.99
48874;BME280;66155;46.204;5.220;2023-07-08T11:23:11;98759.38;;;30.44;33.43
48874;BME280;66155;46.204;5.220;2023-07-08T11:28:19;98738.66;;;30.55;33.28
48874;BME280;66155;46.204;5.220;2023-07-08T11:33:24;98751.03;;;30.78;32.86
48874;BME280;66155;46.204;5.220;2023-07-08T11:38:25;98740.25;;;30.81;32.59
48874;BME280;66155;46.204;5.220;2023-07-08T11:43:33;98737.25;;;30.97;32.42
48874;BME280;66155;46.204;5.220;2023-07-08T11:48:42;98750.72;;;31.04;31.60
48874;BME280;66155;46.204;5.220;2023-07-08T12:09:28;98730.75;;;31.45;30.93
48874;BME280;66155;46.204;5.220;2023-07-08T12:14:31;98713.81;;;31.62;31.08
48874;BME280;66155;46.204;5.220;2023-07-08T12:19:31;98703.03;;;31.66;30.29
48874;BME280;66155;46.204;5.220;2023-07-08T12:24:33;98712.25;;;31.76;29.72
48874;BME280;66155;46.204;5.220;2023-07-08T12:29:34;98697.63;;;31.84;28.96
48874;BME280;66155;46.204;5.220;2023-07-08T12:34:34;98712.97;;;31.94;29.16
48874;BME280;66155;46.204;5.220;2023-07-08T12:39:35;98693.25;;;32.19;29.71
48874;BME280;66155;46.204;5.220;2023-07-08T12:44:38;98695.50;;;32.38;29.57
48874;BME280;66155;46.204;5.220;2023-07-08T12:49:42;98685.84;;;32.45;29.16
48874;BME280;66155;46.204;5.220;2023-07-08T12:54:42;98685.00;;;32.55;29.16
48874;BME280;66155;46.204;5.220;2023-07-08T12:59:43;98694.22;;;32.65;29.40
48874;BME280;66155;46.204;5.220;2023-07-08T13:04:46;98684.88;;;32.80;29.14
48874;BME280;66155;46.204;5.220;2023-07-08T13:09:47;98694.31;;;33.03;28.76
48874;BME280;66155;46.204;5.220;2023-07-08T13:14:48;98693.44;;;33.20;28.85
48874;BME280;66155;46.204;5.220;2023-07-08T13:19:49;98701.44;;;33.34;28.42
48874;BME280;66155;46.204;5.220;2023-07-08T13:25:01;98701.84;;;33.29;26.96
48874;BME280;66155;46.204;5.220;2023-07-08T13:30:20;98702.56;;;33.37;27.48
48874;BME280;66155;46.204;5.220;2023-07-08T13:35:28;98704.53;;;33.37;28.02
48874;BME280;66155;46.204;5.220;2023-07-08T13:40:35;98697.72;;;33.59;27.93
48874;BME280;66155;46.204;5.220;2023-07-08T13:45:36;98702.25;;;33.73;27.66
48874;BME280;66155;46.204;5.220;2023-07-08T13:50:58;98699.75;;;33.89;26.31
48874;BME280;66155;46.204;5.220;2023-07-08T13:56:01;98704.44;;;34.16;26.50
48874;BME280;66155;46.204;5.220;2023-07-08T14:01:02;98703.69;;;34.19;26.50
48874;BME280;66155;46.204;5.220;2023-07-08T14:06:02;98706.19;;;34.34;26.72
48874;BME280;66155;46.204;5.220;2023-07-08T14:11:03;98689.09;;;34.71;26.60
48874;BME280;66155;46.204;5.220;2023-07-08T14:16:10;98694.34;;;34.82;26.31
48874;BME280;66155;46.204;5.220;2023-07-08T14:21:19;98688.78;;;35.16;26.50
48874;BME280;66155;46.204;5.220;2023-07-08T14:26:20;98682.41;;;35.27;26.18
48874;BME280;66155;46.204;5.220;2023-07-08T14:31:23;98686.00;;;35.44;26.10
48874;BME280;66155;46.204;5.220;2023-07-08T14:36:24;98678.44;;;35.55;25.93
48874;BME280;66155;46.204;5.220;2023-07-08T14:41:24;98673.53;;;35.90;25.69
48874;BME280;66155;46.204;5.220;2023-07-08T14:46:25;98663.66;;;36.20;25.46
48874;BME280;66155;46.204;5.220;2023-07-08T14:51:25;98683.34;;;36.04;24.99
48874;BME280;66155;46.204;5.220;2023-07-08T14:56:26;98683.84;;;35.78;24.85
48874;BME280;66155;46.204;5.220;2023-07-08T15:01:26;98680.19;;;35.65;24.93
48874;BME280;66155;46.204;5.220;2023-07-08T15:06:30;98685.94;;;35.67;25.00
48874;BME280;66155;46.204;5.220;2023-07-08T15:11:31;98683.88;;;36.15;24.72
48874;BME280;66155;46.204;5.220;2023-07-08T15:16:32;98679.25;;;36.68;24.49
48874;BME280;66155;46.204;5.220;2023-07-08T15:21:32;98667.78;;;37.10;24.29
48874;BME280;66155;46.204;5.220;2023-07-08T15:26:33;98668.94;;;37.42;23.80
48874;BME280;66155;46.204;5.220;2023-07-08T15:31:34;98664.72;;;37.54;23.53
48874;BME280;66155;46.204;5.220;2023-07-08T15:36:35;98661.44;;;37.75;23.51
48874;BME280;66155;46.204;5.220;2023-07-08T15:41:36;98656.38;;;37.90;23.51
48874;BME280;66155;46.204;5.220;2023-07-08T15:46:42;98655.13;;;38.20;23.13
48874;BME280;66155;46.204;5.220;2023-07-08T15:51:45;98650.00;;;38.48;23.21
48874;BME280;66155;46.204;5.220;2023-07-08T15:56:47;98646.63;;;38.57;22.64
48874;BME280;66155;46.204;5.220;2023-07-08T16:01:49;98652.59;;;38.39;22.82
48874;BME280;66155;46.204;5.220;2023-07-08T16:06:50;98653.88;;;38.09;22.05
48874;BME280;66155;46.204;5.220;2023-07-08T16:11:50;98646.31;;;38.29;21.94
48874;BME280;66155;46.204;5.220;2023-07-08T16:16:51;98645.53;;;38.67;21.66
48874;BME280;66155;46.204;5.220;2023-07-08T16:21:51;98644.47;;;38.65;21.82
48874;BME280;66155;46.204;5.220;2023-07-08T16:26:52;98645.50;;;38.93;21.94
48874;BME280;66155;46.204;5.220;2023-07-08T16:31:52;98642.69;;;39.19;21.84
48874;BME280;66155;46.204;5.220;2023-07-08T16:36:53;98649.75;;;38.81;21.41
48874;BME280;66155;46.204;5.220;2023-07-08T16:41:53;98647.31;;;38.96;21.28
48874;BME280;66155;46.204;5.220;2023-07-08T16:46:54;98655.03;;;39.10;21.15
48874;BME280;66155;46.204;5.220;2023-07-08T16:51:54;98637.94;;;39.10;21.39
48874;BME280;66155;46.204;5.220;2023-07-08T16:56:55;98637.84;;;39.35;21.42
48874;BME280;66155;46.204;5.220;2023-07-08T17:01:55;98641.94;;;39.40;21.16
48874;BME280;66155;46.204;5.220;2023-07-08T17:06:55;98648.19;;;39.63;21.20
48874;BME280;66155;46.204;5.220;2023-07-08T17:11:56;98636.47;;;39.84;21.29
48874;BME280;66155;46.204;5.220;2023-07-08T17:16:57;98638.91;;;39.82;21.16
48874;BME280;66155;46.204;5.220;2023-07-08T17:21:57;98643.53;;;39.95;21.17
48874;BME280;66155;46.204;5.220;2023-07-08T17:26:57;98633.53;;;40.01;20.86
48874;BME280;66155;46.204;5.220;2023-07-08T17:31:58;98641.59;;;39.73;20.92
48874;BME280;66155;46.204;5.220;2023-07-08T17:36:59;98646.72;;;39.93;20.75
48874;BME280;66155;46.204;5.220;2023-07-08T17:41:59;98638.97;;;39.91;20.79
48874;BME280;66155;46.204;5.220;2023-07-08T17:47:00;98646.06;;;39.67;21.07
48874;BME280;66155;46.204;5.220;2023-07-08T17:52:01;98647.38;;;39.84;20.87
48874;BME280;66155;46.204;5.220;2023-07-08T17:57:01;98649.31;;;39.97;20.59
48874;BME280;66155;46.204;5.220;2023-07-08T18:02:02;98653.97;;;40.27;20.33
48874;BME280;66155;46.204;5.220;2023-07-08T18:07:03;98650.09;;;40.47;19.95
48874;BME280;66155;46.204;5.220;2023-07-08T18:12:03;98649.56;;;40.71;19.75
48874;BME280;66155;46.204;5.220;2023-07-08T18:17:04;98654.53;;;40.54;20.00
48874;BME280;66155;46.204;5.220;2023-07-08T18:22:05;98666.97;;;39.61;20.72
48874;BME280;66155;46.204;5.220;2023-07-08T18:27:05;98662.25;;;39.39;21.02
48874;BME280;66155;46.204;5.220;2023-07-08T18:32:12;98665.03;;;38.78;21.45
48874;BME280;66155;46.204;5.220;2023-07-08T18:37:13;98670.59;;;38.36;21.90
48874;BME280;66155;46.204;5.220;2023-07-08T18:42:13;98663.78;;;38.02;22.24
48874;BME280;66155;46.204;5.220;2023-07-08T18:47:13;98666.34;;;37.67;22.58
48874;BME280;66155;46.204;5.220;2023-07-08T18:52:14;98667.84;;;37.39;22.84
48874;BME280;66155;46.204;5.220;2023-07-08T18:57:16;98675.38;;;37.19;23.04
48874;BME280;66155;46.204;5.220;2023-07-08T19:02:59;98675.94;;;36.94;23.61
48874;BME280;66155;46.204;5.220;2023-07-08T19:07:59;98683.59;;;36.82;23.65
48874;BME280;66155;46.204;5.220;2023-07-08T19:12:59;98687.69;;;36.54;23.94
48874;BME280;66155;46.204;5.220;2023-07-08T19:18:00;98683.66;;;36.26;24.34
48874;BME280;66155;46.204;5.220;2023-07-08T19:23:03;98691.97;;;35.98;24.65
48874;BME280;66155;46.204;5.220;2023-07-08T19:28:06;98690.00;;;35.59;25.03
48874;BME280;66155;46.204;5.220;2023-07-08T19:33:13;98699.09;;;35.25;25.82
48874;BME280;66155;46.204;5.220;2023-07-08T19:38:15;98700.00;;;34.91;26.12
48874;BME280;66155;46.204;5.220;2023-07-08T19:43:17;98698.13;;;34.57;27.11
48874;BME280;66155;46.204;5.220;2023-07-08T19:48:18;98705.63;;;34.19;27.92
48874;BME280;66155;46.204;5.220;2023-07-08T19:53:20;98708.22;;;33.91;28.48
48874;BME280;66155;46.204;5.220;2023-07-08T19:58:21;98723.19;;;33.62;29.14
48874;BME280;66155;46.204;5.220;2023-07-08T20:03:21;98728.84;;;33.33;29.53
48874;BME280;66155;46.204;5.220;2023-07-08T20:08:29;98723.63;;;33.04;30.25
48874;BME280;66155;46.204;5.220;2023-07-08T20:13:31;98734.22;;;32.81;30.64
48874;BME280;66155;46.204;5.220;2023-07-08T20:18:35;98742.41;;;32.63;30.91
48874;BME280;66155;46.204;5.220;2023-07-08T20:23:36;98749.78;;;32.40;31.27
48874;BME280;66155;46.204;5.220;2023-07-08T20:28:39;98755.66;;;32.21;31.74
48874;BME280;66155;46.204;5.220;2023-07-08T20:33:39;98761.84;;;32.03;32.22
48874;BME280;66155;46.204;5.220;2023-07-08T20:38:40;98768.78;;;31.87;32.61
48874;BME280;66155;46.204;5.220;2023-07-08T20:43:40;98778.44;;;31.73;33.08
48874;BME280;66155;46.204;5.220;2023-07-08T20:48:41;98778.06;;;31.57;33.93
48874;BME280;66155;46.204;5.220;2023-07-08T20:53:41;98774.97;;;31.40;34.10
48874;BME280;66155;46.204;5.220;2023-07-08T20:58:42;98785.34;;;31.35;34.48
48874;BME280;66155;46.204;5.220;2023-07-08T21:03:43;98782.66;;;31.24;34.75
48874;BME280;66155;46.204;5.220;2023-07-08T21:08:44;98791.47;;;31.17;34.97
48874;BME280;66155;46.204;5.220;2023-07-08T21:13:44;98801.09;;;31.11;35.36
48874;BME280;66155;46.204;5.220;2023-07-08T21:18:46;98793.38;;;31.02;35.43
48874;BME280;66155;46.204;5.220;2023-07-08T21:23:47;98791.78;;;30.87;36.01
48874;BME280;66155;46.204;5.220;2023-07-08T21:28:50;98797.88;;;30.73;36.18
48874;BME280;66155;46.204;5.220;2023-07-08T21:33:51;98794.38;;;30.62;36.48
48874;BME280;66155;46.204;5.220;2023-07-08T21:38:53;98798.19;;;30.57;36.47
48874;BME280;66155;46.204;5.220;2023-07-08T21:43:54;98807.78;;;30.51;36.95
48874;BME280;66155;46.204;5.220;2023-07-08T21:48:55;98800.06;;;30.42;36.97
48874;BME280;66155;46.204;5.220;2023-07-08T21:53:56;98808.47;;;30.37;37.01
48874;BME280;66155;46.204;5.220;2023-07-08T21:58:57;98807.28;;;30.31;37.21
48874;BME280;66155;46.204;5.220;2023-07-08T22:03:57;98802.25;;;30.22;37.25
48874;BME280;66155;46.204;5.220;2023-07-08T22:09:00;98805.31;;;30.21;37.30
48874;BME280;66155;46.204;5.220;2023-07-08T22:14:02;98797.53;;;30.08;37.80
48874;BME280;66155;46.204;5.220;2023-07-08T22:19:06;98799.81;;;30.03;37.96
48874;BME280;66155;46.204;5.220;2023-07-08T22:24:08;98805.91;;;29.96;38.13
48874;BME280;66155;46.204;5.220;2023-07-08T22:29:09;98795.09;;;29.85;38.38
48874;BME280;66155;46.204;5.220;2023-07-08T22:34:12;98795.81;;;29.79;38.22
48874;BME280;66155;46.204;5.220;2023-07-08T22:39:13;98785.31;;;29.66;38.51
48874;BME280;66155;46.204;5.220;2023-07-08T22:44:15;98798.34;;;29.64;38.68
48874;BME280;66155;46.204;5.220;2023-07-08T22:49:18;98792.16;;;29.56;38.44
48874;BME280;66155;46.204;5.220;2023-07-08T22:54:25;98803.63;;;29.53;38.99
48874;BME280;66155;46.204;5.220;2023-07-08T22:59:28;98807.81;;;29.51;38.66
48874;BME280;66155;46.204;5.220;2023-07-08T23:04:28;98800.16;;;29.49;38.59
48874;BME280;66155;46.204;5.220;2023-07-08T23:09:29;98798.19;;;29.43;38.47
48874;BME280;66155;46.204;5.220;2023-07-08T23:14:29;98799.66;;;29.36;38.50
48874;BME280;66155;46.204;5.220;2023-07-08T23:19:30;98794.25;;;29.33;38.78
48874;BME280;66155;46.204;5.220;2023-07-08T23:24:30;98802.19;;;29.22;39.30
48874;BME280;66155;46.204;5.220;2023-07-08T23:29:31;98794.41;;;29.13;39.17
48874;BME280;66155;46.204;5.220;2023-07-08T23:34:31;98804.00;;;29.14;39.20
48874;BME280;66155;46.204;5.220;2023-07-08T23:39:32;98808.28;;;29.15;39.05
48874;BME280;66155;46.204;5.220;2023-07-08T23:44:32;98807.06;;;29.13;39.14
48874;BME280;66155;46.204;5.220;2023-07-08T23:49:34;98804.31;;;29.06;39.18
48874;BME280;66155;46.204;5.220;2023-07-08T23:54:37;98800.44;;;28.99;39.24
48874;BME280;66155;46.204;5.220;2023-07-08T23:59:45;98803.47;;;28.98;39.60
